createdAt,value
2018-07-08T00:01:00.413Z,5.10
2018-07-08T00:03:35.704Z,3.90
2018-07-08T00:06:10.818Z,4.57
2018-07-08T00:08:47.675Z,5.20
2018-07-08T00:11:21.321Z,3.90
2018-07-08T00:13:56.118Z,4.33
2018-07-08T00:16:30.718Z,4.57
2018-07-08T00:19:04.234Z,4.73
2018-07-08T00:24:41.751Z,4.33
2018-07-08T00:27:16.257Z,4.00
2018-07-08T00:29:50.317Z,4.17
2018-07-08T00:32:24.323Z,5.40
2018-07-08T00:34:58.137Z,6.53
2018-07-08T00:37:32.154Z,4.73
2018-07-08T00:40:05.417Z,4.30
2018-07-08T00:42:39.454Z,4.00
2018-07-08T00:45:14.084Z,4.50
2018-07-08T00:47:46.892Z,4.83
2018-07-08T00:50:21.181Z,5.70
2018-07-08T00:52:52.916Z,5.37
2018-07-08T00:55:27.037Z,4.97
2018-07-08T00:58:02.010Z,4.23
2018-07-08T01:00:40.606Z,5.40
2018-07-08T01:03:14.229Z,5.30
2018-07-08T01:05:48.182Z,5.60
2018-07-08T01:08:21.550Z,4.00
2018-07-08T01:10:55.420Z,6.07
2018-07-08T01:13:29.484Z,4.53
2018-07-08T01:16:01.651Z,4.63
2018-07-08T01:18:36.051Z,5.63
2018-07-08T01:21:09.901Z,3.07
2018-07-08T01:23:44.122Z,4.67
2018-07-08T01:26:18.009Z,7.50
2018-07-08T01:28:52.181Z,6.13
2018-07-08T01:31:26.410Z,4.70
2018-07-08T01:34:00.822Z,5.70
2018-07-08T01:36:35.188Z,3.63
2018-07-08T01:39:10.778Z,4.72
2018-07-08T01:41:44.188Z,4.37
2018-07-08T01:47:23.014Z,4.40
2018-07-08T01:49:57.527Z,5.00
2018-07-08T01:52:31.968Z,3.70
2018-07-08T01:55:05.863Z,3.63
2018-07-08T01:57:40.398Z,5.43
2018-07-08T02:00:14.469Z,4.97
2018-07-08T02:02:48.168Z,5.80
2018-07-08T02:05:21.777Z,3.20
2018-07-08T02:07:54.356Z,3.62
2018-07-08T02:10:29.377Z,5.07
2018-07-08T02:13:03.498Z,4.93
2018-07-08T02:15:39.303Z,3.00
2018-07-08T02:18:14.290Z,3.37
2018-07-08T02:20:47.859Z,3.33
2018-07-08T02:23:21.993Z,3.47
2018-07-08T02:25:56.382Z,3.67
2018-07-08T02:28:28.714Z,4.10
2018-07-08T02:31:02.369Z,4.93
2018-07-08T02:33:36.373Z,6.50
2018-07-08T02:36:10.534Z,3.07
2018-07-08T02:38:45.994Z,5.40
2018-07-08T02:41:19.823Z,3.27
2018-07-08T02:43:53.761Z,5.15
2018-07-08T02:46:29.085Z,3.87
2018-07-08T02:49:02.838Z,3.90
2018-07-08T02:51:41.169Z,5.33
2018-07-08T02:54:15.194Z,7.87
2018-07-08T02:56:49.561Z,3.07
2018-07-08T02:59:21.651Z,4.78
2018-07-08T03:01:55.673Z,5.03
2018-07-08T03:04:29.633Z,3.98
2018-07-08T03:07:04.011Z,3.95
2018-07-08T03:09:37.727Z,4.60
2018-07-08T03:12:12.627Z,6.22
2018-07-08T03:14:48.149Z,6.17
2018-07-08T03:17:20.515Z,7.20
2018-07-08T03:19:54.123Z,3.93
2018-07-08T03:22:28.220Z,4.90
2018-07-08T03:25:02.354Z,3.85
2018-07-08T03:27:35.820Z,3.55
2018-07-08T03:30:09.342Z,4.35
2018-07-08T03:32:43.489Z,3.90
2018-07-08T03:35:17.436Z,4.15
2018-07-08T03:37:51.482Z,3.90
2018-07-08T03:40:23.539Z,4.22
2018-07-08T03:42:57.748Z,3.75
2018-07-08T03:45:31.872Z,6.72
2018-07-08T03:48:05.513Z,3.55
2018-07-08T03:50:39.620Z,2.60
2018-07-08T03:53:15.486Z,3.70
2018-07-08T03:55:49.953Z,4.72
2018-07-08T03:58:23.556Z,4.90
2018-07-08T04:00:57.620Z,2.40
2018-07-08T04:03:31.417Z,4.85
2018-07-08T04:09:11.851Z,3.33
2018-07-08T04:11:45.681Z,3.22
2018-07-08T04:14:20.073Z,4.15
2018-07-08T04:16:55.064Z,3.00
2018-07-08T04:19:29.855Z,4.33
2018-07-08T04:22:03.735Z,2.77
2018-07-08T04:24:38.098Z,4.35
2018-07-08T04:27:12.047Z,4.67
2018-07-08T04:29:45.038Z,5.37
2018-07-08T04:32:18.926Z,3.77
2018-07-08T04:34:55.570Z,3.35
2018-07-08T04:37:32.945Z,5.33
2018-07-08T04:40:06.827Z,4.50
2018-07-08T04:42:40.989Z,5.30
2018-07-08T04:45:16.832Z,4.15
2018-07-08T04:47:54.333Z,3.72
2018-07-08T04:50:28.896Z,4.15
2018-07-08T04:53:04.452Z,4.37
2018-07-08T04:55:40.958Z,5.57
2018-07-08T04:58:14.969Z,3.33
2018-07-08T05:00:48.977Z,4.90
2018-07-08T05:03:23.110Z,7.20
2018-07-08T05:05:56.827Z,4.17
2018-07-08T05:08:30.761Z,4.12
2018-07-08T05:43:35.419Z,5.60
2018-07-08T05:46:07.958Z,2.70
2018-07-08T05:48:41.836Z,3.30
2018-07-08T05:51:15.828Z,6.42
2018-07-08T05:53:49.864Z,4.90
2018-07-08T05:56:23.741Z,4.03
2018-07-08T05:58:57.699Z,6.55
2018-07-08T06:01:33.501Z,4.53
2018-07-08T06:04:07.267Z,3.40
2018-07-08T06:06:41.177Z,5.85
2018-07-08T06:09:14.717Z,5.83
2018-07-08T06:11:47.049Z,4.42
2018-07-08T06:14:20.503Z,2.95
2018-07-08T06:16:54.880Z,4.87
2018-07-08T06:19:28.822Z,3.83
2018-07-08T06:22:02.343Z,3.65
2018-07-08T06:24:36.369Z,5.40
2018-07-08T06:27:10.400Z,4.67
2018-07-08T06:29:44.453Z,5.65
2018-07-08T06:32:17.191Z,4.97
2018-07-08T06:34:53.409Z,4.78
2018-07-08T06:37:27.567Z,3.27
2018-07-08T06:40:01.200Z,3.05
2018-07-08T06:42:35.474Z,4.50
2018-07-08T06:45:08.860Z,4.83
2018-07-08T06:47:41.415Z,4.50
2018-07-08T06:50:15.303Z,5.30
2018-07-08T06:52:49.522Z,5.85
2018-07-08T06:55:21.918Z,3.50
2018-07-08T06:57:55.632Z,5.53
2018-07-08T07:00:31.572Z,4.92
2018-07-08T07:03:05.154Z,5.28
2018-07-08T07:05:40.234Z,5.87
2018-07-08T07:08:14.227Z,4.27
2018-07-08T07:10:47.842Z,3.98
2018-07-08T07:13:21.726Z,4.67
2018-07-08T07:15:55.561Z,5.47
2018-07-08T07:18:29.776Z,5.62
2018-07-08T07:21:04.997Z,4.47
2018-07-08T07:23:39.337Z,4.33
2018-07-08T07:26:13.179Z,4.57
2018-07-08T07:28:47.289Z,4.60
2018-07-08T07:31:21.391Z,5.60
2018-07-08T07:33:55.480Z,4.12
2018-07-08T07:36:30.184Z,5.40
2018-07-08T07:39:04.408Z,3.47
2018-07-08T07:41:36.918Z,5.33
2018-07-08T07:44:10.527Z,4.87
2018-07-08T07:46:44.350Z,3.40
2018-07-08T07:49:18.902Z,5.17
2018-07-08T07:51:53.329Z,6.22
2018-07-08T07:54:27.613Z,5.87
2018-07-08T07:57:01.249Z,4.58
2018-07-08T07:59:36.453Z,4.18
2018-07-08T08:02:11.846Z,4.17
2018-07-08T08:04:44.100Z,5.22
2018-07-08T08:07:16.558Z,6.15
2018-07-08T08:09:50.181Z,3.90
2018-07-08T08:12:24.190Z,4.60
2018-07-08T08:14:58.639Z,5.25
2018-07-08T08:17:32.377Z,4.78
2018-07-08T08:20:06.237Z,8.68
2018-07-08T08:22:40.345Z,4.95
2018-07-08T08:25:14.308Z,3.83
2018-07-08T08:27:48.166Z,4.12
2018-07-08T08:30:20.672Z,6.35
2018-07-08T08:32:54.785Z,5.17
2018-07-08T08:35:28.476Z,6.10
2018-07-08T08:38:00.837Z,4.50
2018-07-08T08:40:36.262Z,4.12
2018-07-08T09:05:53.974Z,6.28
2018-07-08T09:08:29.589Z,4.92
2018-07-08T09:11:03.792Z,5.40
2018-07-08T09:13:36.761Z,7.37
2018-07-08T09:16:10.609Z,4.55
2018-07-08T09:18:44.413Z,5.60
2018-07-08T09:21:18.957Z,6.03
2018-07-08T09:23:52.543Z,6.53
2018-07-08T09:26:24.870Z,9.10
2018-07-08T09:28:59.962Z,4.35
2018-07-08T09:31:33.618Z,5.92
2018-07-08T09:34:07.367Z,5.50
2018-07-08T09:36:41.084Z,5.53
2018-07-08T09:39:16.797Z,3.12
2018-07-08T09:41:50.926Z,5.47
2018-07-08T09:44:24.981Z,3.83
2018-07-08T09:46:58.684Z,5.77
2018-07-08T09:49:32.882Z,8.63
2018-07-08T09:52:06.491Z,5.23
2018-07-08T09:54:40.286Z,6.58
2018-07-08T09:57:13.968Z,6.55
2018-07-08T09:59:47.836Z,6.50
2018-07-08T10:02:22.195Z,7.25
2018-07-08T10:04:56.008Z,5.92
2018-07-08T10:07:31.002Z,7.17
2018-07-08T10:10:08.824Z,5.40
2018-07-08T10:12:42.522Z,4.60
2018-07-08T10:15:16.638Z,7.65
2018-07-08T10:17:50.175Z,7.53
2018-07-08T10:20:23.870Z,6.67
2018-07-08T10:22:57.421Z,6.62
2018-07-08T10:25:30.945Z,5.67
2018-07-08T10:28:21.820Z,7.10
2018-07-08T10:30:56.027Z,6.17
2018-07-08T10:33:28.506Z,5.33
2018-07-08T10:36:04.543Z,7.50
2018-07-08T10:38:37.027Z,6.10
2018-07-08T10:41:10.948Z,6.83
2018-07-08T10:43:45.183Z,5.73
2018-07-08T10:46:18.593Z,7.30
2018-07-08T10:48:52.677Z,7.10
2018-07-08T10:51:26.794Z,6.80
2018-07-08T10:54:00.815Z,6.07
2018-07-08T10:56:34.589Z,5.75
2018-07-08T10:59:08.769Z,4.67
2018-07-08T11:01:43.524Z,5.53
2018-07-08T11:04:17.564Z,5.00
2018-07-08T11:06:51.498Z,8.60
2018-07-08T11:09:25.485Z,7.80
2018-07-08T11:12:01.147Z,7.87
2018-07-08T11:14:35.217Z,7.25
2018-07-08T11:17:09.352Z,7.40
2018-07-08T11:19:43.300Z,8.60
2018-07-08T11:22:17.573Z,9.37
2018-07-08T11:24:51.115Z,8.50
2018-07-08T11:27:25.127Z,9.93
2018-07-08T11:29:58.716Z,9.13
2018-07-08T11:32:32.818Z,10.43
2018-07-08T11:35:06.638Z,10.80
2018-07-08T11:37:40.713Z,10.73
2018-07-08T11:40:14.631Z,9.65
2018-07-08T11:42:47.134Z,8.37
2018-07-08T11:45:20.730Z,10.40
2018-07-08T11:47:54.786Z,11.20
2018-07-08T11:50:28.795Z,8.97
2018-07-08T11:53:03.678Z,9.37
2018-07-08T11:55:37.549Z,12.23
2018-07-08T11:58:09.665Z,23.05
2018-07-08T12:00:43.227Z,39.48
2018-07-08T12:03:17.879Z,45.53
2018-07-08T12:05:51.844Z,30.10
2018-07-08T12:08:26.308Z,18.47
2018-07-08T12:11:00.128Z,12.53
2018-07-08T12:13:35.378Z,10.57
2018-07-08T12:16:09.213Z,10.43
2018-07-08T12:18:42.755Z,7.85
2018-07-08T12:21:17.085Z,7.60
2018-07-08T12:23:50.495Z,5.87
2018-07-08T12:26:25.020Z,7.70
2018-07-08T12:28:58.507Z,8.93
2018-07-08T12:31:32.015Z,11.40
2018-07-08T12:34:06.511Z,13.27
2018-07-08T12:36:40.877Z,14.40
2018-07-08T12:39:16.497Z,15.83
2018-07-08T12:41:49.972Z,12.37
2018-07-08T12:44:24.425Z,12.03
2018-07-08T12:47:02.654Z,8.93
2018-07-08T12:49:36.763Z,8.83
2018-07-08T12:52:13.298Z,9.07
2018-07-08T12:54:48.118Z,10.37
2018-07-08T12:57:22.277Z,8.07
2018-07-08T12:59:58.207Z,10.47
2018-07-08T13:02:31.215Z,9.27
2018-07-08T13:05:05.494Z,11.73
2018-07-08T13:07:39.314Z,8.37
2018-07-08T13:10:12.877Z,8.13
2018-07-08T13:12:46.675Z,8.53
2018-07-08T13:15:22.071Z,10.63
2018-07-08T13:17:58.359Z,9.73
2018-07-08T13:20:32.404Z,10.20
2018-07-08T13:23:06.883Z,9.35
2018-07-08T13:25:40.397Z,10.77
2018-07-08T13:28:15.098Z,11.73
2018-07-08T13:30:49.061Z,10.07
2018-07-08T13:33:23.600Z,8.83
2018-07-08T13:35:56.998Z,13.07
2018-07-08T13:38:30.625Z,11.40
2018-07-08T13:41:05.360Z,10.97
2018-07-08T13:43:39.827Z,11.47
2018-07-08T13:46:14.272Z,7.75
2018-07-08T13:48:48.210Z,9.33
2018-07-08T13:51:22.025Z,10.13
2018-07-08T13:53:55.883Z,13.37
2018-07-08T13:56:30.108Z,12.57
2018-07-08T13:59:03.914Z,12.20
2018-07-08T14:01:37.710Z,10.93
2018-07-08T14:04:11.513Z,10.85
2018-07-08T14:06:45.595Z,11.20
2018-07-08T14:09:19.431Z,11.28
2018-07-08T14:11:53.659Z,8.87
2018-07-08T14:14:27.302Z,10.23
2018-07-08T14:17:02.293Z,10.93
2018-07-08T14:19:35.968Z,9.87
2018-07-08T14:22:10.034Z,9.03
2018-07-08T14:24:43.792Z,10.40
2018-07-08T14:27:18.848Z,9.37
2018-07-08T14:29:52.387Z,8.90
2018-07-08T14:32:26.545Z,10.23
2018-07-08T14:35:00.397Z,10.13
2018-07-08T14:37:34.879Z,9.17
2018-07-08T14:40:08.534Z,8.37
2018-07-08T14:42:42.659Z,10.50
2018-07-08T14:45:16.548Z,17.37
2018-07-08T14:47:49.992Z,12.13
2018-07-08T14:50:24.029Z,9.73
2018-07-08T14:52:57.927Z,9.60
2018-07-08T14:55:31.593Z,8.27
2018-07-08T14:58:05.942Z,8.70
2018-07-08T15:00:40.136Z,5.87
2018-07-08T15:03:12.576Z,4.33
2018-07-08T15:05:46.366Z,4.80
2018-07-08T15:08:19.769Z,5.37
2018-07-08T15:10:53.797Z,7.20
2018-07-08T15:13:27.425Z,5.50
2018-07-08T15:16:01.663Z,5.77
2018-07-08T15:18:38.378Z,6.80
2018-07-08T15:21:12.306Z,5.80
2018-07-08T15:23:46.271Z,6.27
2018-07-08T15:26:20.127Z,6.23
2018-07-08T15:28:54.808Z,7.03
2018-07-08T15:31:28.481Z,7.65
2018-07-08T15:34:03.975Z,5.73
2018-07-08T15:36:39.938Z,6.93
2018-07-08T15:39:13.419Z,4.50
2018-07-08T15:41:47.482Z,7.10
2018-07-08T15:44:21.181Z,6.37
2018-07-08T15:46:55.246Z,5.72
2018-07-08T15:49:29.464Z,4.37
2018-07-08T15:52:03.198Z,6.87
2018-07-08T15:54:37.057Z,6.63
2018-07-08T15:57:11.018Z,6.77
2018-07-08T15:59:45.836Z,4.57
2018-07-08T16:02:19.763Z,6.37
2018-07-08T16:04:54.000Z,7.87
2018-07-08T16:07:27.509Z,6.70
2018-07-08T16:10:00.078Z,5.47
2018-07-08T16:12:33.585Z,4.73
2018-07-08T16:15:07.877Z,5.67
2018-07-08T16:17:41.732Z,6.40
2018-07-08T16:20:16.653Z,7.27
2018-07-08T16:22:50.806Z,6.30
2018-07-08T16:25:23.438Z,5.83
2018-07-08T16:27:57.176Z,4.83
2018-07-08T17:07:09.361Z,5.67
2018-07-08T17:09:43.297Z,3.27
2018-07-08T17:12:17.178Z,4.13
2018-07-08T17:14:50.962Z,5.17
2018-07-08T17:17:24.910Z,8.17
2018-07-08T17:19:58.898Z,5.30
2018-07-08T17:22:34.910Z,7.30
2018-07-08T17:25:09.028Z,7.23
2018-07-08T17:27:42.112Z,7.70
2018-07-08T17:30:16.315Z,4.90
2018-07-08T17:32:50.099Z,5.43
2018-07-08T17:35:23.568Z,6.43
2018-07-08T17:37:57.515Z,7.43
2018-07-08T17:40:31.068Z,7.40
2018-07-08T17:43:07.056Z,4.60
2018-07-08T17:45:41.158Z,6.57
2018-07-08T17:48:14.823Z,4.60
2018-07-08T17:50:49.972Z,4.70
2018-07-08T17:53:22.214Z,4.67
2018-07-08T17:55:56.295Z,5.20
2018-07-08T17:58:30.479Z,5.07
2018-07-08T18:01:02.736Z,7.10
2018-07-08T18:03:36.159Z,4.50
2018-07-08T18:06:08.084Z,4.07
2018-07-08T18:08:42.570Z,3.87
2018-07-08T18:11:17.432Z,5.03
2018-07-08T18:13:51.232Z,6.37
2018-07-08T18:16:25.396Z,6.70
2018-07-08T18:19:00.105Z,5.20
2018-07-08T18:21:32.349Z,5.23
2018-07-08T18:24:07.707Z,4.20
2018-07-08T18:26:39.998Z,4.63
2018-07-08T18:29:15.195Z,5.50
2018-07-08T18:31:49.341Z,4.17
2018-07-08T18:34:23.442Z,6.77
2018-07-08T18:36:57.555Z,4.40
2018-07-08T18:39:31.134Z,4.67
2018-07-08T18:42:05.515Z,5.08
2018-07-08T18:44:39.475Z,6.90
2018-07-08T18:47:13.654Z,4.43
2018-07-08T18:49:47.305Z,5.53
2018-07-08T18:52:21.367Z,6.60
2018-07-08T18:54:55.350Z,4.23
2018-07-08T18:57:27.755Z,4.30
2018-07-08T19:00:01.593Z,4.55
2018-07-08T19:02:35.427Z,4.78
2018-07-08T19:05:09.720Z,4.17
2018-07-08T19:07:43.397Z,4.13
2018-07-08T19:10:18.123Z,4.67
2018-07-08T19:12:51.753Z,5.90
2018-07-08T19:15:25.375Z,6.03
2018-07-08T19:17:59.266Z,6.90
2018-07-08T19:20:33.309Z,4.87
2018-07-08T19:23:20.834Z,4.17
2018-07-08T19:25:55.696Z,4.83
2018-07-08T19:28:29.572Z,6.00
2018-07-08T19:31:03.549Z,6.17
2018-07-08T19:33:37.168Z,3.57
2018-07-08T19:36:11.097Z,5.27
2018-07-08T19:38:44.893Z,4.05
2018-07-08T19:41:18.438Z,6.17
2018-07-08T19:43:52.713Z,5.33
2018-07-08T19:46:26.319Z,4.43
2018-07-08T19:49:00.154Z,4.37
2018-07-08T19:51:35.155Z,3.80
2018-07-08T19:54:07.436Z,4.40
2018-07-08T19:56:39.872Z,4.43
2018-07-08T19:59:13.375Z,3.93
2018-07-08T20:01:47.525Z,4.93
2018-07-08T20:04:21.264Z,4.17
2018-07-08T20:06:55.841Z,7.07
2018-07-08T20:09:29.551Z,6.37
2018-07-08T20:12:03.411Z,4.03
2018-07-08T20:14:37.291Z,5.93
2018-07-08T20:17:11.258Z,3.47
2018-07-08T20:19:44.973Z,3.75
2018-07-08T20:22:18.554Z,5.00
2018-07-08T20:24:52.834Z,5.33
2018-07-08T20:27:28.249Z,4.73
2018-07-08T20:30:02.825Z,4.90
2018-07-08T20:32:36.494Z,6.20
2018-07-08T20:35:10.397Z,4.03
2018-07-08T20:37:44.323Z,5.53
2018-07-08T20:40:18.596Z,3.53
2018-07-08T20:42:52.264Z,7.43
2018-07-08T20:45:26.434Z,4.23
2018-07-08T20:47:59.823Z,4.17
2018-07-08T20:50:34.348Z,4.87
2018-07-08T20:53:07.856Z,4.97
2018-07-08T20:55:42.132Z,5.13
2018-07-08T20:58:15.715Z,4.93
2018-07-08T21:00:50.412Z,3.43
2018-07-08T21:03:23.919Z,5.40
2018-07-08T21:05:57.745Z,3.47
2018-07-08T21:08:32.017Z,5.00
2018-07-08T21:11:06.841Z,5.70
2018-07-08T21:13:40.660Z,5.03
2018-07-08T21:16:14.620Z,4.83
2018-07-08T21:18:48.766Z,5.20
2018-07-08T21:21:22.873Z,5.27
2018-07-08T21:23:56.733Z,4.63
2018-07-08T21:26:29.640Z,4.50
2018-07-08T21:29:03.849Z,5.50
2018-07-08T21:31:37.963Z,4.03
2018-07-08T21:34:12.094Z,3.07
2018-07-08T21:36:45.521Z,4.77
2018-07-08T21:39:19.201Z,5.03
2018-07-08T21:41:53.093Z,4.57
2018-07-08T21:44:26.813Z,4.67
2018-07-08T21:47:01.240Z,4.83
2018-07-08T21:49:35.235Z,6.47
2018-07-08T21:52:09.123Z,4.70
2018-07-08T21:54:42.945Z,4.80
2018-07-08T21:57:17.608Z,4.17
2018-07-08T21:59:51.625Z,4.33
2018-07-08T22:02:24.643Z,14.10
2018-07-08T22:04:58.801Z,5.83
2018-07-08T22:08:34.839Z,6.73
2018-07-08T22:11:09.737Z,5.30
2018-07-08T22:13:44.409Z,5.07
2018-07-08T22:16:18.685Z,5.67
2018-07-08T22:18:52.462Z,5.35
2018-07-08T22:21:26.623Z,4.10
2018-07-08T22:24:00.233Z,5.60
2018-07-08T22:26:34.060Z,5.20
2018-07-08T22:29:08.802Z,3.33
2018-07-08T22:31:40.923Z,4.63
2018-07-08T22:34:14.863Z,7.65
2018-07-08T22:36:49.249Z,2.87
2018-07-08T22:39:23.503Z,6.22
2018-07-08T22:41:56.150Z,3.37
2018-07-08T22:44:29.750Z,4.67
2018-07-08T22:47:04.801Z,5.07
2018-07-08T22:49:38.615Z,4.27
2018-07-08T22:52:13.195Z,6.03
2018-07-08T22:54:47.413Z,7.00
2018-07-08T22:57:21.492Z,5.03
2018-07-08T23:00:03.644Z,4.03
2018-07-08T23:02:44.156Z,5.07
2018-07-08T23:05:18.643Z,4.27
2018-07-08T23:07:52.475Z,5.83
2018-07-08T23:10:24.868Z,7.90
2018-07-08T23:12:58.587Z,5.50
2018-07-08T23:15:32.664Z,3.97
2018-07-08T23:18:06.334Z,5.23
2018-07-08T23:20:41.296Z,5.17
2018-07-08T23:23:15.073Z,5.73
2018-07-08T23:25:49.505Z,7.00
2018-07-08T23:28:23.627Z,5.40
2018-07-08T23:30:58.830Z,7.00
2018-07-08T23:33:32.688Z,4.55
2018-07-08T23:36:07.182Z,6.67
2018-07-08T23:38:41.052Z,5.07
2018-07-08T23:41:14.935Z,4.57
2018-07-08T23:43:47.483Z,5.53
2018-07-08T23:46:21.376Z,8.13
2018-07-08T23:48:55.411Z,6.17
2018-07-08T23:51:29.016Z,6.27
2018-07-08T23:54:02.850Z,7.05
2018-07-08T23:56:36.726Z,5.23
2018-07-08T23:59:11.166Z,5.47
